createdAt,value
2022-12-07T00:00:58.877Z,88.50
2022-12-07T00:03:26.632Z,88.56
2022-12-07T00:05:54.363Z,88.71
2022-12-07T00:08:22.111Z,88.26
2022-12-07T00:10:49.823Z,88.03
2022-12-07T00:13:17.591Z,88.05
2022-12-07T00:15:46.769Z,88.00
2022-12-07T00:18:14.567Z,87.86
2022-12-07T00:20:42.326Z,87.92
2022-12-07T00:23:10.031Z,87.83
2022-12-07T00:25:37.731Z,87.62
2022-12-07T00:28:05.924Z,87.83
2022-12-07T00:30:33.773Z,87.67
2022-12-07T00:33:03.207Z,87.57
2022-12-07T00:35:30.907Z,87.94
2022-12-07T00:37:58.639Z,87.80
2022-12-07T00:40:26.318Z,87.73
2022-12-07T00:42:54.252Z,87.66
2022-12-07T00:45:21.921Z,87.44
2022-12-07T00:47:49.567Z,87.61
2022-12-07T00:50:19.029Z,87.15
2022-12-07T00:52:46.732Z,87.11
2022-12-07T00:55:14.411Z,87.04
2022-12-07T00:57:42.219Z,86.90
2022-12-07T01:00:10.776Z,86.95
2022-12-07T01:02:38.553Z,87.02
2022-12-07T01:05:07.292Z,86.87
2022-12-07T01:07:36.353Z,87.02
2022-12-07T01:10:04.459Z,86.99
2022-12-07T01:12:32.389Z,87.14
2022-12-07T01:15:00.064Z,87.03
2022-12-07T01:17:27.833Z,87.39
2022-12-07T01:19:55.582Z,87.44
2022-12-07T01:22:23.215Z,86.84
2022-12-07T01:24:52.350Z,87.08
2022-12-07T01:27:20.149Z,87.10
2022-12-07T01:29:47.863Z,86.60
2022-12-07T01:32:15.497Z,86.55
2022-12-07T01:34:43.203Z,86.94
2022-12-07T01:37:10.838Z,86.89
2022-12-07T01:39:38.635Z,86.76
2022-12-07T01:42:10.262Z,86.69
2022-12-07T01:45:11.141Z,86.90
2022-12-07T01:47:39.276Z,87.22
2022-12-07T01:50:07.677Z,86.89
2022-12-07T01:52:35.958Z,87.03
2022-12-07T01:55:06.972Z,87.02
2022-12-07T01:57:38.488Z,87.10
2022-12-07T02:00:08.477Z,86.81
2022-12-07T02:02:39.066Z,86.94
2022-12-07T02:05:08.213Z,86.71
2022-12-07T02:07:37.538Z,86.97
2022-12-07T02:10:15.303Z,87.03
2022-12-07T02:12:46.010Z,86.93
2022-12-07T02:15:14.096Z,87.03
2022-12-07T02:17:48.256Z,86.84
2022-12-07T02:20:25.560Z,86.83
2022-12-07T02:23:14.684Z,86.71
2022-12-07T02:26:07.555Z,86.53
2022-12-07T02:28:38.235Z,86.58
2022-12-07T02:31:13.315Z,86.65
2022-12-07T02:33:44.492Z,86.32
2022-12-07T02:36:15.078Z,86.25
2022-12-07T02:38:48.281Z,86.54
2022-12-07T02:41:20.097Z,86.90
2022-12-07T02:43:50.659Z,86.83
2022-12-07T02:46:23.958Z,86.71
2022-12-07T02:49:09.535Z,86.92
2022-12-07T02:51:41.694Z,86.82
2022-12-07T02:54:13.872Z,86.34
2022-12-07T02:56:47.515Z,86.63
2022-12-07T02:59:20.675Z,86.24
2022-12-07T03:01:54.191Z,86.40
2022-12-07T03:04:33.188Z,86.67
2022-12-07T03:07:06.381Z,86.65
2022-12-07T03:09:38.316Z,86.56
2022-12-07T03:12:12.392Z,86.47
2022-12-07T03:14:42.851Z,86.13
2022-12-07T03:17:15.374Z,86.21
2022-12-07T03:19:43.664Z,86.29
2022-12-07T03:22:13.338Z,86.21
2022-12-07T03:24:43.598Z,86.08
2022-12-07T03:27:15.067Z,86.29
2022-12-07T03:29:46.228Z,86.09
2022-12-07T03:32:18.285Z,86.00
2022-12-07T03:34:48.360Z,86.01
2022-12-07T03:37:20.359Z,85.79
2022-12-07T03:39:54.036Z,85.63
2022-12-07T03:42:21.714Z,85.61
2022-12-07T03:44:49.780Z,85.65
2022-12-07T03:47:28.526Z,85.97
2022-12-07T03:49:58.872Z,85.82
2022-12-07T03:52:28.723Z,86.12
2022-12-07T03:55:00.869Z,85.72
2022-12-07T03:57:30.002Z,86.03
2022-12-07T03:59:58.433Z,85.97
2022-12-07T04:02:29.094Z,86.25
2022-12-07T04:04:57.147Z,86.10
2022-12-07T04:07:24.896Z,85.99
2022-12-07T04:09:52.608Z,86.14
2022-12-07T04:12:20.596Z,86.36
2022-12-07T04:14:48.271Z,86.46
2022-12-07T04:17:15.972Z,86.68
2022-12-07T04:19:45.157Z,86.87
2022-12-07T04:22:12.877Z,86.31
2022-12-07T04:24:40.897Z,86.21
2022-12-07T04:27:08.663Z,86.03
2022-12-07T04:29:36.461Z,85.84
2022-12-07T04:32:04.218Z,86.04
2022-12-07T04:34:31.943Z,85.78
2022-12-07T04:37:00.993Z,85.61
2022-12-07T04:39:30.153Z,85.48
2022-12-07T04:41:58.828Z,85.47
2022-12-07T04:44:27.471Z,85.45
2022-12-07T04:46:55.635Z,85.31
2022-12-07T04:49:23.696Z,85.20
2022-12-07T04:51:51.643Z,85.26
2022-12-07T04:54:20.829Z,84.95
2022-12-07T04:56:48.592Z,85.13
2022-12-07T04:59:16.990Z,85.36
2022-12-07T05:01:45.152Z,85.61
2022-12-07T05:04:12.999Z,85.70
2022-12-07T05:06:40.744Z,85.89
2022-12-07T05:09:08.432Z,85.62
2022-12-07T05:11:40.647Z,85.67
2022-12-07T05:14:11.614Z,85.99
2022-12-07T05:16:39.730Z,85.95
2022-12-07T05:19:08.120Z,85.91
2022-12-07T05:21:35.948Z,85.93
2022-12-07T05:24:03.997Z,85.69
2022-12-07T05:26:31.873Z,85.56
2022-12-07T05:29:01.020Z,85.22
2022-12-07T05:31:29.202Z,84.86
2022-12-07T05:33:57.193Z,84.92
2022-12-07T05:36:25.071Z,84.90
2022-12-07T05:38:52.825Z,84.49
2022-12-07T05:41:38.473Z,84.63
2022-12-07T05:44:07.808Z,84.52
2022-12-07T05:46:35.638Z,84.83
2022-12-07T05:49:03.529Z,85.07
2022-12-07T05:51:31.253Z,84.66
2022-12-07T05:53:58.980Z,84.91
2022-12-07T05:56:27.599Z,85.58
2022-12-07T05:59:12.865Z,85.30
2022-12-07T06:01:42.362Z,85.77
2022-12-07T06:04:10.815Z,85.61
2022-12-07T06:06:38.542Z,85.62
2022-12-07T06:09:06.906Z,85.81
2022-12-07T06:11:52.308Z,85.58
2022-12-07T06:14:20.056Z,85.98
2022-12-07T06:16:49.781Z,85.83
2022-12-07T06:19:17.491Z,85.70
2022-12-07T06:21:45.669Z,85.54
2022-12-07T06:24:14.504Z,85.72
2022-12-07T06:26:42.177Z,85.86
2022-12-07T06:29:10.499Z,85.59
2022-12-07T06:31:39.035Z,85.53
2022-12-07T06:34:09.433Z,85.40
2022-12-07T06:36:37.100Z,85.30
2022-12-07T06:39:05.236Z,85.21
2022-12-07T06:41:33.164Z,85.50
2022-12-07T06:44:00.836Z,85.43
2022-12-07T06:46:28.700Z,85.26
2022-12-07T06:48:56.480Z,85.11
2022-12-07T06:51:25.618Z,84.79
2022-12-07T06:53:53.306Z,84.65
2022-12-07T06:56:21.386Z,84.52
2022-12-07T06:58:49.117Z,84.27
2022-12-07T07:01:18.850Z,84.19
2022-12-07T07:03:48.117Z,84.24
2022-12-07T07:06:16.105Z,84.17
2022-12-07T07:08:45.236Z,84.44
2022-12-07T07:11:13.166Z,84.38
2022-12-07T07:13:41.254Z,84.59
2022-12-07T07:16:09.596Z,84.97
2022-12-07T07:18:37.355Z,84.60
2022-12-07T07:21:05.631Z,85.01
2022-12-07T07:23:33.382Z,85.14
2022-12-07T07:26:02.435Z,85.53
2022-12-07T07:28:30.215Z,85.57
2022-12-07T07:30:58.028Z,85.73
2022-12-07T07:33:25.787Z,85.88
2022-12-07T07:35:53.500Z,86.01
2022-12-07T07:38:21.728Z,86.31
2022-12-07T07:40:49.519Z,86.54
2022-12-07T07:43:18.583Z,86.41
2022-12-07T07:45:46.868Z,86.70
2022-12-07T07:48:14.623Z,86.49
2022-12-07T07:50:42.348Z,86.61
2022-12-07T07:53:10.186Z,86.73
2022-12-07T07:55:37.947Z,86.79
2022-12-07T07:58:05.623Z,86.41
2022-12-07T08:00:34.782Z,86.23
2022-12-07T08:03:02.472Z,86.33
2022-12-07T08:05:30.147Z,86.08
2022-12-07T08:07:59.640Z,85.90
2022-12-07T08:10:27.540Z,85.76
2022-12-07T08:13:14.902Z,85.76
2022-12-07T08:15:46.000Z,85.58
2022-12-07T08:18:14.129Z,85.39
2022-12-07T08:20:42.823Z,85.39
2022-12-07T08:23:12.165Z,85.40
2022-12-07T08:25:40.008Z,85.52
2022-12-07T08:28:08.077Z,85.58
2022-12-07T08:30:35.889Z,85.58
2022-12-07T08:33:05.063Z,85.80
2022-12-07T08:35:35.450Z,85.51
2022-12-07T08:38:03.365Z,85.66
2022-12-07T08:40:31.499Z,85.67
2022-12-07T08:42:59.268Z,85.59
2022-12-07T08:45:27.801Z,85.49
2022-12-07T08:48:00.355Z,85.66
2022-12-07T08:50:29.647Z,85.56
2022-12-07T08:52:59.427Z,85.74
2022-12-07T08:55:27.099Z,85.51
2022-12-07T08:57:54.794Z,85.64
2022-12-07T09:00:22.843Z,85.82
2022-12-07T09:02:50.579Z,86.02
2022-12-07T09:05:18.236Z,86.03
2022-12-07T09:07:49.585Z,86.21
2022-12-07T09:10:17.346Z,86.15
2022-12-07T09:12:45.172Z,86.37
2022-12-07T09:15:12.918Z,86.25
2022-12-07T09:17:40.600Z,86.07
2022-12-07T09:20:09.256Z,86.20
2022-12-07T09:22:37.024Z,86.09
2022-12-07T09:25:07.072Z,86.23
2022-12-07T09:27:34.799Z,86.36
2022-12-07T09:30:02.745Z,86.38
2022-12-07T09:32:30.870Z,86.48
2022-12-07T09:34:58.713Z,86.29
2022-12-07T09:37:26.663Z,86.03
2022-12-07T09:39:54.373Z,85.91
2022-12-07T09:42:30.409Z,86.33
2022-12-07T09:44:59.059Z,86.43
2022-12-07T09:47:26.882Z,86.26
2022-12-07T09:49:56.171Z,86.65
2022-12-07T09:52:27.923Z,86.58
2022-12-07T09:54:55.711Z,86.55
2022-12-07T09:57:29.911Z,86.36
2022-12-07T09:59:58.620Z,85.99
2022-12-07T10:02:38.182Z,86.11
2022-12-07T10:05:08.009Z,85.96
2022-12-07T10:07:35.996Z,86.12
2022-12-07T10:10:06.127Z,86.19
2022-12-07T10:12:55.643Z,85.79
2022-12-07T10:15:24.066Z,85.37
2022-12-07T10:17:52.889Z,85.18
2022-12-07T10:20:24.478Z,85.07
2022-12-07T10:23:03.599Z,84.68
2022-12-07T10:25:34.546Z,84.47
2022-12-07T10:28:13.146Z,84.54
2022-12-07T10:30:53.071Z,84.70
2022-12-07T10:33:37.681Z,84.73
2022-12-07T10:36:21.051Z,84.70
2022-12-07T10:38:50.526Z,84.52
2022-12-07T10:41:19.918Z,84.99
2022-12-07T10:43:54.741Z,83.92
2022-12-07T10:46:53.232Z,84.06
2022-12-07T10:49:40.054Z,84.00
2022-12-07T10:52:11.594Z,84.43
2022-12-07T10:54:47.137Z,83.92
2022-12-07T10:57:24.826Z,83.19
2022-12-07T11:00:02.748Z,84.18
2022-12-07T11:03:01.843Z,84.11
2022-12-07T11:05:32.392Z,83.93
2022-12-07T11:08:06.280Z,83.64
2022-12-07T11:10:42.022Z,82.96
2022-12-07T11:13:28.661Z,82.50
2022-12-07T11:16:06.146Z,82.80
2022-12-07T11:18:37.610Z,82.46
2022-12-07T11:21:10.041Z,82.06
2022-12-07T11:23:47.620Z,81.83
2022-12-07T11:26:22.841Z,81.49
2022-12-07T11:29:05.446Z,81.44
2022-12-07T11:31:39.092Z,81.05
2022-12-07T11:34:10.345Z,80.78
2022-12-07T11:36:40.741Z,80.81
2022-12-07T11:39:18.365Z,80.76
2022-12-07T11:41:47.684Z,80.46
2022-12-07T11:44:27.681Z,81.02
2022-12-07T11:47:01.085Z,80.73
2022-12-07T11:49:38.161Z,80.70
2022-12-07T11:52:08.515Z,80.65
2022-12-07T11:54:38.193Z,80.44
2022-12-07T11:57:20.084Z,80.31
2022-12-07T11:59:51.190Z,80.58
2022-12-07T12:02:25.170Z,80.28
2022-12-07T12:04:56.479Z,80.95
2022-12-07T12:10:22.051Z,80.79
2022-12-07T12:16:25.056Z,79.63
2022-12-07T12:19:03.801Z,79.53
2022-12-07T12:21:33.318Z,79.61
2022-12-07T12:24:04.225Z,80.46
2022-12-07T12:26:34.181Z,79.91
2022-12-07T12:29:04.369Z,79.44
2022-12-07T12:31:40.143Z,79.22
2022-12-07T12:34:34.212Z,79.43
2022-12-07T12:37:02.017Z,79.36
2022-12-07T12:39:30.079Z,79.64
2022-12-07T12:42:08.392Z,78.77
2022-12-07T12:44:44.533Z,78.53
2022-12-07T12:47:55.567Z,78.57
2022-12-07T12:50:27.246Z,79.56
2022-12-07T12:53:14.755Z,78.90
2022-12-07T12:56:11.546Z,79.02
2022-12-07T12:58:46.973Z,78.58
2022-12-07T13:01:41.024Z,78.31
2022-12-07T13:04:59.779Z,78.57
2022-12-07T13:07:53.546Z,78.51
2022-12-07T13:10:36.863Z,78.49
2022-12-07T13:13:06.827Z,78.71
2022-12-07T13:15:39.199Z,78.59
2022-12-07T13:18:25.173Z,79.18
2022-12-07T13:20:57.491Z,78.73
2022-12-07T13:23:30.044Z,79.19
2022-12-07T13:26:03.633Z,79.27
2022-12-07T13:28:36.343Z,78.49
2022-12-07T13:31:16.208Z,78.50
2022-12-07T13:33:46.167Z,79.31
2022-12-07T13:36:20.989Z,79.09
2022-12-07T13:38:55.738Z,78.56
2022-12-07T13:41:24.349Z,78.95
2022-12-07T13:43:54.987Z,78.66
2022-12-07T13:46:28.161Z,79.04
2022-12-07T13:48:56.571Z,79.34
2022-12-07T13:51:26.303Z,79.42
2022-12-07T13:53:57.865Z,79.11
2022-12-07T13:56:30.959Z,78.85
2022-12-07T13:58:58.630Z,79.37
2022-12-07T14:01:26.650Z,79.27
2022-12-07T14:03:54.366Z,79.45
2022-12-07T14:06:27.834Z,79.86
2022-12-07T14:09:10.899Z,79.00
2022-12-07T14:11:39.673Z,79.48
2022-12-07T14:14:07.467Z,78.54
2022-12-07T14:16:36.993Z,78.11
2022-12-07T14:19:06.485Z,78.49
2022-12-07T14:21:35.548Z,78.16
2022-12-07T14:24:18.493Z,78.07
2022-12-07T14:26:47.256Z,77.83
2022-12-07T14:29:23.258Z,79.17
2022-12-07T14:31:51.080Z,78.59
2022-12-07T14:34:18.942Z,78.61
2022-12-07T14:36:46.611Z,78.91
2022-12-07T14:39:15.723Z,78.74
2022-12-07T14:41:52.545Z,78.52
2022-12-07T14:44:24.010Z,79.08
2022-12-07T14:49:41.141Z,78.73
2022-12-07T14:55:04.013Z,79.15
2022-12-07T14:57:31.985Z,78.74
2022-12-07T14:59:59.771Z,78.62
2022-12-07T15:02:27.456Z,78.80
2022-12-07T15:04:55.225Z,77.87
2022-12-07T15:07:23.548Z,77.97
2022-12-07T15:09:51.412Z,77.54
2022-12-07T15:12:20.546Z,77.58
2022-12-07T15:14:48.336Z,77.67
2022-12-07T15:17:26.407Z,77.79
2022-12-07T15:19:59.548Z,78.00
2022-12-07T15:22:27.321Z,77.84
2022-12-07T15:24:55.472Z,77.83
2022-12-07T15:27:24.699Z,77.97
2022-12-07T15:29:52.425Z,78.06
2022-12-07T15:32:20.166Z,77.98
2022-12-07T15:34:47.857Z,78.27
2022-12-07T15:37:15.505Z,78.35
2022-12-07T15:39:43.474Z,77.94
2022-12-07T15:42:11.207Z,77.65
2022-12-07T15:44:57.734Z,78.30
2022-12-07T15:47:25.473Z,78.21
2022-12-07T15:49:53.187Z,78.19
2022-12-07T15:52:21.164Z,78.69
2022-12-07T15:54:49.434Z,78.89
2022-12-07T15:57:20.811Z,78.93
2022-12-07T15:59:54.478Z,79.44
2022-12-07T16:02:23.635Z,79.26
2022-12-07T16:04:52.198Z,79.38
2022-12-07T16:07:20.220Z,79.42
2022-12-07T16:09:48.724Z,79.00
2022-12-07T16:12:16.437Z,78.94
2022-12-07T16:14:44.513Z,79.15
2022-12-07T16:19:23.350Z,79.37
2022-12-07T16:21:51.068Z,79.60
2022-12-07T16:24:18.778Z,79.95
2022-12-07T16:26:50.241Z,79.58
2022-12-07T16:29:19.694Z,79.73
2022-12-07T16:31:47.541Z,79.75
2022-12-07T16:34:15.236Z,79.45
2022-12-07T16:39:32.014Z,79.00
2022-12-07T16:41:59.741Z,79.38
2022-12-07T16:44:27.636Z,79.05
2022-12-07T16:48:01.110Z,78.94
2022-12-07T16:50:28.822Z,78.91
2022-12-07T16:52:56.587Z,78.65
2022-12-07T16:55:24.259Z,78.98
2022-12-07T16:57:51.950Z,78.60
2022-12-07T17:00:20.770Z,78.40
2022-12-07T17:02:48.429Z,78.84
2022-12-07T17:05:17.542Z,79.11
2022-12-07T17:07:45.226Z,78.70
2022-12-07T17:10:13.243Z,78.73
2022-12-07T17:12:40.984Z,78.22
2022-12-07T17:15:18.067Z,78.87
2022-12-07T17:17:45.959Z,78.68
2022-12-07T17:20:15.170Z,78.47
2022-12-07T17:22:44.261Z,78.36
2022-12-07T17:25:12.400Z,78.77
2022-12-07T17:27:40.224Z,78.89
2022-12-07T17:30:09.069Z,78.73
2022-12-07T17:32:37.207Z,78.82
2022-12-07T17:35:05.453Z,79.19
2022-12-07T17:37:34.024Z,78.90
2022-12-07T17:40:03.085Z,79.19
2022-12-07T17:42:40.469Z,79.36
2022-12-07T17:45:10.541Z,79.79
2022-12-07T17:47:38.289Z,79.77
2022-12-07T17:50:08.168Z,80.14
2022-12-07T17:52:53.728Z,79.95
2022-12-07T17:55:22.763Z,80.55
2022-12-07T17:57:51.790Z,80.42
2022-12-07T18:00:20.618Z,80.70
2022-12-07T18:02:48.509Z,80.55
2022-12-07T18:05:16.275Z,80.83
2022-12-07T18:07:43.934Z,80.56
2022-12-07T18:10:11.998Z,80.78
2022-12-07T18:12:41.536Z,80.47
2022-12-07T18:15:10.034Z,80.66
2022-12-07T18:17:37.981Z,80.72
2022-12-07T18:20:07.290Z,80.74
2022-12-07T18:22:34.933Z,80.93
2022-12-07T18:25:03.111Z,80.87
2022-12-07T18:27:31.069Z,80.71
2022-12-07T18:30:00.118Z,80.78
2022-12-07T18:32:30.870Z,80.71
2022-12-07T18:34:59.817Z,81.08
2022-12-07T18:37:28.432Z,80.88
2022-12-07T18:39:57.058Z,81.04
2022-12-07T18:42:25.140Z,81.00
2022-12-07T18:44:52.848Z,81.10
2022-12-07T18:47:21.942Z,81.35
2022-12-07T18:49:49.655Z,81.16
2022-12-07T18:52:17.319Z,81.40
2022-12-07T18:54:45.152Z,81.38
2022-12-07T18:57:12.865Z,81.56
2022-12-07T18:59:49.751Z,81.39
2022-12-07T19:02:19.058Z,81.56
2022-12-07T19:04:48.264Z,81.39
2022-12-07T19:07:17.290Z,81.45
2022-12-07T19:09:45.015Z,81.53
2022-12-07T19:12:13.944Z,81.52
2022-12-07T19:14:42.035Z,81.61
2022-12-07T19:17:11.423Z,81.47
2022-12-07T19:19:41.421Z,81.70
2022-12-07T19:22:11.736Z,81.67
2022-12-07T19:24:39.513Z,81.94
2022-12-07T19:27:08.043Z,81.62
2022-12-07T19:29:35.959Z,81.72
2022-12-07T19:32:05.166Z,81.70
2022-12-07T19:34:33.273Z,81.95
2022-12-07T19:37:01.032Z,81.93
2022-12-07T19:39:30.926Z,82.18
2022-12-07T19:41:58.961Z,82.08
2022-12-07T19:44:29.808Z,82.07
2022-12-07T19:47:04.709Z,82.25
2022-12-07T19:49:34.429Z,82.29
2022-12-07T19:52:05.201Z,82.13
2022-12-07T19:54:35.490Z,82.08
2022-12-07T19:57:04.521Z,82.20
2022-12-07T19:59:32.574Z,82.37
2022-12-07T20:02:00.622Z,82.16
2022-12-07T20:04:30.334Z,82.52
2022-12-07T20:07:00.095Z,82.49
2022-12-07T20:09:27.800Z,82.47
2022-12-07T20:12:14.605Z,82.61
2022-12-07T20:14:42.472Z,83.17
2022-12-07T20:17:10.291Z,83.03
2022-12-07T20:19:38.512Z,83.10
2022-12-07T20:22:06.199Z,82.84
2022-12-07T20:24:36.086Z,82.85
2022-12-07T20:27:06.897Z,83.24
2022-12-07T20:29:34.672Z,83.15
2022-12-07T20:32:02.535Z,83.13
2022-12-07T20:34:30.331Z,82.90
2022-12-07T20:36:58.043Z,82.76
2022-12-07T20:39:25.810Z,82.45
2022-12-07T20:42:11.263Z,82.71
2022-12-07T20:44:40.690Z,82.55
2022-12-07T20:47:08.870Z,82.63
2022-12-07T20:49:36.523Z,82.56
2022-12-07T20:52:04.461Z,82.47
2022-12-07T20:54:32.164Z,82.53
2022-12-07T20:56:59.938Z,82.68
2022-12-07T20:59:27.964Z,82.40
2022-12-07T21:01:57.120Z,82.53
2022-12-07T21:04:24.854Z,82.36
2022-12-07T21:06:52.511Z,82.28
2022-12-07T21:09:26.560Z,82.56
2022-12-07T21:11:54.748Z,82.59
2022-12-07T21:14:22.585Z,82.75
2022-12-07T21:16:50.300Z,82.88
2022-12-07T21:19:19.484Z,82.70
2022-12-07T21:21:47.265Z,82.81
2022-12-07T21:24:14.980Z,82.77
2022-12-07T21:26:42.669Z,82.91
2022-12-07T21:29:11.252Z,82.43
2022-12-07T21:31:39.371Z,82.75
2022-12-07T21:34:07.765Z,82.57
2022-12-07T21:36:37.141Z,82.74
2022-12-07T21:39:05.587Z,82.25
2022-12-07T21:41:35.581Z,81.83
2022-12-07T21:44:06.759Z,82.47
2022-12-07T21:46:34.985Z,82.15
2022-12-07T21:49:05.010Z,82.10
2022-12-07T21:51:32.985Z,82.15
2022-12-07T21:54:02.864Z,82.13
2022-12-07T21:56:32.201Z,82.03
2022-12-07T21:59:01.774Z,81.88
2022-12-07T22:01:34.343Z,82.18
2022-12-07T22:04:02.517Z,81.98
2022-12-07T22:06:30.220Z,82.53
2022-12-07T22:08:58.024Z,82.17
2022-12-07T22:11:27.232Z,82.00
2022-12-07T22:14:12.429Z,81.87
2022-12-07T22:16:40.599Z,82.17
2022-12-07T22:19:08.883Z,81.67
2022-12-07T22:21:36.948Z,82.08
2022-12-07T22:24:05.280Z,81.83
2022-12-07T22:26:34.691Z,81.76
2022-12-07T22:29:02.753Z,81.50
2022-12-07T22:31:30.537Z,81.64
2022-12-07T22:33:58.556Z,81.48
2022-12-07T22:36:28.264Z,81.63
2022-12-07T22:38:56.049Z,81.46
2022-12-07T22:41:25.829Z,81.03
2022-12-07T22:43:55.374Z,81.28
2022-12-07T22:46:23.658Z,81.02
2022-12-07T22:48:51.670Z,80.69
2022-12-07T22:51:23.349Z,80.82
2022-12-07T22:53:51.221Z,81.32
2022-12-07T22:56:19.450Z,80.95
2022-12-07T22:58:47.777Z,80.75
2022-12-07T23:01:18.066Z,80.65
2022-12-07T23:03:46.318Z,80.91
2022-12-07T23:06:16.855Z,80.87
2022-12-07T23:08:45.214Z,80.68
2022-12-07T23:11:38.288Z,80.64
2022-12-07T23:14:14.832Z,80.50
2022-12-07T23:16:44.272Z,80.25
2022-12-07T23:19:12.230Z,80.43
2022-12-07T23:21:41.069Z,80.55
2022-12-07T23:24:09.758Z,80.67
2022-12-07T23:26:37.436Z,80.60
2022-12-07T23:29:05.146Z,80.60
2022-12-07T23:31:33.439Z,80.74
2022-12-07T23:34:02.893Z,80.81
2022-12-07T23:36:31.071Z,81.15
2022-12-07T23:39:00.045Z,81.24
2022-12-07T23:41:29.471Z,81.17
2022-12-07T23:43:58.267Z,81.43
2022-12-07T23:46:27.885Z,81.55
2022-12-07T23:48:56.592Z,81.55
2022-12-07T23:51:25.896Z,81.35
2022-12-07T23:53:54.890Z,81.57
2022-12-07T23:56:24.727Z,81.32
2022-12-07T23:58:53.211Z,81.45
